Time;durP1;ratioP1;P1;durP2;ratioP2;P2;SDS_P1;SDS_P2;PMS_P1;PMS_P2;Temp;Humidity;BMP_temperature;BMP_pressure;BME280_temperature;BME280_humidity;BME280_pressure;Samples;Min_cycle;Max_cycle;Signal;HPM_P1;HPM_P2
2022/05/17 00:00:35;;;;;;;9.43;8.93;;;;;;;13.79;69.72;93093.66;5089944;28;20232;-76
2022/05/17 00:03:01;;;;;;;10.50;9.90;;;;;;;13.73;69.90;93073.81;5085266;28;20192;-76
2022/05/17 00:05:27;;;;;;;10.20;9.53;;;;;;;13.82;69.51;93069.47;5090485;28;20245;-75
2022/05/17 00:07:53;;;;;;;10.03;9.50;;;;;;;13.87;69.92;93077.28;5090400;28;20207;-76
2022/05/17 00:10:21;;;;;;;10.20;9.60;;;;;;;13.84;69.36;93085.72;5091203;28;20462;-76
2022/05/17 00:12:47;;;;;;;10.20;9.53;;;;;;;13.87;69.13;93074.66;5091697;28;20206;-77
2022/05/17 00:15:13;;;;;;;10.00;9.53;;;;;;;13.82;69.61;93082.59;5091059;28;21055;-77
2022/05/17 00:17:39;;;;;;;10.13;9.47;;;;;;;13.75;70.43;93076.94;5091253;28;20196;-77
2022/05/17 00:20:05;;;;;;;10.73;10.13;;;;;;;13.66;70.91;93083.91;5090295;28;20268;-77
2022/05/17 00:22:30;;;;;;;10.03;9.53;;;;;;;13.73;70.46;93084.31;5091444;28;20260;-77
2022/05/17 00:24:56;;;;;;;9.53;9.13;;;;;;;13.75;70.71;93081.41;5090737;28;20219;-77
2022/05/17 00:27:21;;;;;;;9.60;9.03;;;;;;;13.63;70.88;93073.19;5091700;28;20189;-77
2022/05/17 00:29:47;;;;;;;10.00;9.50;;;;;;;13.75;69.92;93082.19;5090960;28;20197;-77
2022/05/17 00:32:12;;;;;;;10.03;9.53;;;;;;;13.70;69.83;93078.84;5090708;28;20228;-77
2022/05/17 00:34:38;;;;;;;9.80;9.30;;;;;;;13.75;69.44;93084.81;5091023;28;20220;-77
2022/05/17 00:37:03;;;;;;;9.67;9.07;;;;;;;13.72;69.45;93081.97;5090683;28;20232;-77
2022/05/17 00:39:29;;;;;;;10.40;9.83;;;;;;;13.69;69.47;93088.59;5089948;28;20173;-77
2022/05/17 00:41:54;;;;;;;10.67;9.93;;;;;;;13.71;69.69;93080.44;5089828;28;20292;-77
2022/05/17 00:47:07;;;;;;;9.70;9.13;;;;;;;13.61;69.41;93081.34;5090078;28;20259;-75
2022/05/17 00:49:41;;;;;;;10.20;9.67;;;;;;;13.68;68.42;93081.75;5089599;28;20271;-76
2022/05/17 00:52:13;;;;;;;10.13;9.33;;;;;;;13.72;68.23;93079.34;5089912;28;20232;-75
2022/05/17 00:54:42;;;;;;;10.33;9.73;;;;;;;13.76;68.50;93078.50;5089199;28;20199;-76
2022/05/17 00:57:20;;;;;;;10.53;10.03;;;;;;;13.65;68.89;93077.09;5089999;28;20233;-77
2022/05/17 00:59:47;;;;;;;10.20;9.60;;;;;;;13.59;70.12;93070.38;5088279;28;20195;-76
2022/05/17 01:02:13;;;;;;;9.43;8.77;;;;;;;13.53;70.62;93068.88;5088986;28;20240;-76
2022/05/17 01:04:39;;;;;;;9.07;8.63;;;;;;;13.58;69.31;93071.44;5090550;28;20227;-75
2022/05/17 01:07:14;;;;;;;10.10;9.60;;;;;;;13.50;70.40;93074.69;5088783;28;20233;-76
2022/05/17 01:09:39;;;;;;;9.87;9.37;;;;;;;13.48;70.98;93063.69;5090482;28;20192;-75
2022/05/17 01:12:05;;;;;;;10.17;9.63;;;;;;;13.43;71.06;93069.00;5089852;28;20247;-75
2022/05/17 01:17:15;;;;;;;10.00;9.30;;;;;;;13.39;70.94;93068.03;5091405;28;20297;-75
2022/05/17 01:19:42;;;;;;;9.83;9.33;;;;;;;13.38;71.34;93069.09;5089752;28;20184;-75
2022/05/17 01:22:08;;;;;;;10.23;9.70;;;;;;;13.35;71.87;93053.16;5088664;28;20240;-76
2022/05/17 01:24:34;;;;;;;10.00;9.30;;;;;;;13.22;72.05;93053.84;5089617;28;20299;-76
2022/05/17 01:27:08;;;;;;;10.23;9.73;;;;;;;13.09;72.81;93052.72;5087488;28;20217;-75
2022/05/17 01:29:42;;;;;;;9.73;9.23;;;;;;;13.02;72.52;93046.25;5088577;28;20208;-76
2022/05/17 01:32:10;;;;;;;9.93;9.33;;;;;;;13.00;73.11;93049.16;5089214;28;20228;-76
2022/05/17 01:34:36;;;;;;;10.43;9.83;;;;;;;13.06;73.06;93047.28;5088711;28;20746;-76
2022/05/17 01:37:04;;;;;;;10.63;10.00;;;;;;;12.88;72.99;93046.16;5089776;28;20444;-75
2022/05/17 01:39:30;;;;;;;10.10;9.50;;;;;;;12.99;72.90;93037.09;5088747;28;20184;-76
2022/05/17 01:41:56;;;;;;;9.53;9.03;;;;;;;13.01;72.28;93040.25;5088474;28;20224;-77
2022/05/17 01:44:22;;;;;;;10.17;9.57;;;;;;;12.88;72.97;93036.47;5088999;28;20232;-75
2022/05/17 01:46:48;;;;;;;10.03;9.47;;;;;;;12.81;73.36;93037.84;5089238;28;20278;-75
2022/05/17 01:49:13;;;;;;;10.57;10.07;;;;;;;12.95;72.84;93042.13;5089184;28;20185;-75
2022/05/17 01:51:39;;;;;;;9.37;8.87;;;;;;;12.87;73.25;93047.22;5089592;28;20258;-76
2022/05/17 01:54:04;;;;;;;10.47;9.87;;;;;;;12.86;73.48;93051.69;5088748;28;20197;-76
2022/05/17 01:56:30;;;;;;;9.83;9.33;;;;;;;12.77;73.11;93045.50;5088754;28;20228;-75
2022/05/17 01:58:55;;;;;;;9.57;8.80;;;;;;;12.79;73.72;93037.38;5088057;28;20197;-76
2022/05/17 02:01:21;;;;;;;9.20;8.80;;;;;;;12.80;72.82;93039.69;5088811;28;20220;-76
2022/05/17 02:03:46;;;;;;;8.33;7.93;;;;;;;12.72;73.08;93050.00;5089102;28;20928;-76
2022/05/17 02:06:12;;;;;;;10.07;9.37;;;;;;;12.71;73.29;93056.31;5089534;28;20312;-76
2022/05/17 02:08:37;;;;;;;10.27;9.60;;;;;;;12.76;73.75;93058.88;5087699;28;20250;-76
2022/05/17 02:11:03;;;;;;;10.67;9.97;;;;;;;12.78;73.44;93059.38;5088363;28;20224;-75
2022/05/17 02:13:29;;;;;;;10.70;9.87;;;;;;;12.69;74.11;93042.72;5088549;28;20276;-76
2022/05/17 02:15:55;;;;;;;9.77;8.97;;;;;;;12.74;73.99;93055.75;5087652;28;20240;-76
2022/05/17 02:18:21;;;;;;;9.93;9.43;;;;;;;12.47;74.62;93045.06;5090385;28;20212;-75
2022/05/17 02:20:46;;;;;;;11.20;10.50;;;;;;;12.51;74.55;93046.06;5089228;28;20225;-76
2022/05/17 02:23:12;;;;;;;10.87;9.97;;;;;;;12.66;74.11;93062.41;5089134;28;20208;-76
2022/05/17 02:25:37;;;;;;;10.03;9.53;;;;;;;12.63;74.01;93060.34;5086626;28;20238;-76
2022/05/17 02:28:03;;;;;;;10.20;9.60;;;;;;;12.68;74.09;93056.88;5087779;28;20203;-76
2022/05/17 02:30:29;;;;;;;9.60;9.13;;;;;;;12.67;74.42;93056.09;5088552;28;20228;-75
2022/05/17 02:32:55;;;;;;;9.83;9.20;;;;;;;12.67;73.97;93057.91;5088990;28;20196;-76
2022/05/17 02:35:20;;;;;;;10.53;9.93;;;;;;;12.51;74.49;93048.69;5088914;28;20226;-76
2022/05/17 02:37:46;;;;;;;12.40;11.53;;;;;;;12.61;74.39;93061.66;5087184;28;20193;-76
2022/05/17 02:40:12;;;;;;;10.37;9.60;;;;;;;12.54;74.13;93059.41;5088956;28;20299;-76
2022/05/17 02:42:37;;;;;;;10.70;10.10;;;;;;;12.50;74.45;93065.44;5089542;28;20185;-76
2022/05/17 02:45:04;;;;;;;11.27;10.67;;;;;;;12.47;74.92;93058.94;5086922;28;20227;-77
2022/05/17 02:47:29;;;;;;;9.60;9.13;;;;;;;12.57;74.54;93055.44;5086243;28;20189;-76
2022/05/17 02:49:55;;;;;;;10.97;10.07;;;;;;;12.45;74.53;93044.56;5087186;28;20183;-76
2022/05/17 02:52:20;;;;;;;10.40;9.80;;;;;;;12.35;74.36;93047.28;5087470;28;20194;-75
2022/05/17 02:54:46;;;;;;;11.30;10.50;;;;;;;12.42;74.34;93053.75;5088554;28;20189;-76
2022/05/17 02:57:11;;;;;;;10.90;10.30;;;;;;;12.41;74.68;93057.44;5087951;28;20248;-75
2022/05/17 02:59:37;;;;;;;10.40;9.90;;;;;;;12.41;74.55;93056.66;5087813;28;20192;-76
2022/05/17 03:02:03;;;;;;;11.47;10.73;;;;;;;12.43;74.88;93054.53;5087927;28;20253;-75
2022/05/17 03:04:28;;;;;;;10.70;10.10;;;;;;;12.50;74.96;93049.72;5088593;28;20208;-75
2022/05/17 03:06:54;;;;;;;11.53;10.93;;;;;;;12.42;74.87;93047.75;5091947;28;20236;-75
2022/05/17 03:09:20;;;;;;;11.27;10.27;;;;;;;12.53;74.31;93044.72;5091967;28;20193;-75
2022/05/17 03:11:46;;;;;;;10.67;10.17;;;;;;;12.62;74.21;93050.91;5092440;28;20208;-76
2022/05/17 03:14:13;;;;;;;11.13;10.37;;;;;;;12.96;73.48;93062.00;5091653;28;20192;-77
2022/05/17 03:16:39;;;;;;;11.60;10.80;;;;;;;13.48;71.68;93061.09;5091361;28;20228;-76
2022/05/17 03:19:05;;;;;;;11.10;10.43;;;;;;;14.05;69.36;93049.44;5092673;28;20197;-76
2022/05/17 03:21:31;;;;;;;10.00;9.37;;;;;;;14.85;65.92;93061.09;5092780;28;20228;-75
2022/05/17 03:23:57;;;;;;;11.07;10.50;;;;;;;15.70;62.71;93063.81;5092279;28;20212;-75
2022/05/17 03:26:22;;;;;;;9.43;8.93;;;;;;;16.06;61.11;93073.19;5091448;28;20225;-76
2022/05/17 03:28:48;;;;;;;9.83;9.30;;;;;;;15.72;62.73;93072.19;5092241;28;20260;-76
2022/05/17 03:31:13;;;;;;;10.40;9.70;;;;;;;16.48;61.07;93071.94;5092123;28;20221;-76
2022/05/17 03:33:39;;;;;;;9.93;9.43;;;;;;;16.53;60.05;93071.78;5092618;28;20199;-77
2022/05/17 03:36:06;;;;;;;8.83;8.43;;;;;;;15.98;61.17;93073.16;5091550;28;20239;-76
2022/05/17 03:38:33;;;;;;;9.77;9.13;;;;;;;15.42;63.21;93072.84;5091241;28;20219;-76
2022/05/17 03:40:58;;;;;;;9.90;9.20;;;;;;;15.54;62.61;93062.59;5090813;28;20241;-77
2022/05/17 03:43:26;;;;;;;9.90;9.40;;;;;;;15.52;63.25;93080.50;5093047;28;20219;-76
2022/05/17 03:45:51;;;;;;;9.83;9.33;;;;;;;15.59;63.58;93075.63;5090410;28;20232;-78
2022/05/17 03:48:17;;;;;;;9.20;8.70;;;;;;;15.27;64.46;93063.41;5090860;28;20185;-78
2022/05/17 03:50:43;;;;;;;11.17;10.33;;;;;;;15.10;65.20;93073.75;5090970;28;20937;-77
2022/05/17 03:53:08;;;;;;;10.90;10.27;;;;;;;14.77;67.00;93076.81;5090543;28;20200;-77
2022/05/17 03:55:34;;;;;;;10.37;9.50;;;;;;;14.46;68.22;93040.56;5090859;28;20221;-79
2022/05/17 03:58:00;;;;;;;9.97;9.43;;;;;;;14.64;68.89;93078.34;5090497;28;20220;-83
2022/05/17 04:00:26;;;;;;;9.97;9.37;;;;;;;14.70;69.46;93071.13;5092060;28;20224;-80
2022/05/17 04:02:51;;;;;;;10.47;9.73;;;;;;;15.15;68.34;93081.53;5089659;28;20205;-80
2022/05/17 04:05:17;;;;;;;8.83;8.43;;;;;;;15.05;68.54;93078.34;5090809;28;20247;-84
2022/05/17 04:07:43;;;;;;;8.77;8.37;;;;;;;14.98;68.38;93067.44;5091471;28;20185;-79
2022/05/17 04:10:12;;;;;;;10.20;9.40;;;;;;;15.05;68.92;93079.09;5091307;28;20188;-81
2022/05/17 04:12:37;;;;;;;9.07;8.53;;;;;;;15.04;68.64;93071.50;5091520;28;20185;-88
2022/05/17 04:15:05;;;;;;;10.80;10.00;;;;;;;15.37;66.37;93081.59;5092615;28;20204;-79
2022/05/17 04:17:30;;;;;;;13.07;9.53;;;;;;;15.59;65.33;93084.31;5091843;28;20660;-82
2022/05/17 04:19:59;;;;;;;10.33;9.53;;;;;;;15.55;64.61;93072.03;5090574;28;20196;-80
2022/05/17 04:22:24;;;;;;;9.70;9.13;;;;;;;15.60;65.36;93074.53;5091821;28;20181;-84
2022/05/17 04:24:56;;;;;;;10.17;9.47;;;;;;;15.97;63.24;93090.81;5090105;28;20229;-80
2022/05/17 04:27:23;;;;;;;10.70;9.90;;;;;;;16.18;61.30;93093.72;5090274;28;20223;-81
2022/05/17 04:29:49;;;;;;;12.07;11.27;;;;;;;16.16;61.23;93098.50;5091390;28;20204;-82
2022/05/17 04:32:14;;;;;;;12.23;10.53;;;;;;;15.96;64.28;93094.53;5070319;28;20233;-82
2022/05/17 04:34:40;;;;;;;10.70;10.10;;;;;;;15.60;66.89;93093.75;5071724;28;20198;-78
2022/05/17 04:37:06;;;;;;;11.83;11.13;;;;;;;15.98;65.46;93097.63;5088451;28;20221;-86
2022/05/17 04:39:32;;;;;;;11.83;10.80;;;;;;;16.10;66.09;93097.09;5090496;28;20189;-84
2022/05/17 04:41:58;;;;;;;12.07;11.07;;;;;;;16.00;65.91;93095.47;5089758;28;20235;-83
2022/05/17 04:44:24;;;;;;;12.07;11.17;;;;;;;15.91;65.33;93085.94;5090153;28;20224;-84
2022/05/17 04:46:49;;;;;;;12.63;11.83;;;;;;;16.30;62.93;93108.97;5089197;28;20228;-84
2022/05/17 04:49:15;;;;;;;10.90;10.20;;;;;;;16.25;63.12;93080.91;5089818;28;20326;-85
2022/05/17 04:51:41;;;;;;;11.27;10.37;;;;;;;16.29;63.73;93108.22;5089277;28;20375;-85
2022/05/17 04:54:06;;;;;;;12.50;11.67;;;;;;;16.53;61.75;93092.88;5090329;28;20195;-84
2022/05/17 04:56:34;;;;;;;11.40;10.67;;;;;;;16.39;62.05;93091.38;5088481;28;20295;-84
2022/05/17 04:59:00;;;;;;;11.63;10.70;;;;;;;16.15;60.79;93088.28;5088465;28;20188;-88
2022/05/17 05:01:25;;;;;;;11.77;10.90;;;;;;;16.93;60.49;93104.22;5088052;28;20281;-86
2022/05/17 05:03:51;;;;;;;10.63;9.93;;;;;;;17.43;58.88;93090.38;5090591;28;20214;-80
2022/05/17 05:06:16;;;;;;;11.23;10.53;;;;;;;17.58;57.77;93097.13;5089010;28;20255;-85
2022/05/17 05:08:42;;;;;;;9.83;9.23;;;;;;;17.54;57.63;93101.47;5089099;28;20193;-86
2022/05/17 05:11:07;;;;;;;11.13;10.43;;;;;;;17.41;58.40;93103.13;5088298;28;20224;-84
2022/05/17 05:13:33;;;;;;;10.60;9.80;;;;;;;17.33;58.34;93101.25;5088674;28;20202;-87
2022/05/17 05:15:58;;;;;;;10.80;10.13;;;;;;;17.22;57.83;93075.44;5088047;28;20240;-85
2022/05/17 05:18:23;;;;;;;11.33;10.63;;;;;;;17.89;56.55;93081.13;5088426;28;20227;-85
2022/05/17 05:20:49;;;;;;;11.63;10.57;;;;;;;17.99;58.14;93100.13;5088620;28;20232;-79
2022/05/17 05:23:15;;;;;;;12.10;11.10;;;;;;;18.15;56.17;93081.91;5087574;28;20196;-83
2022/05/17 05:25:41;;;;;;;11.60;10.90;;;;;;;18.60;55.82;93101.63;5087441;28;20225;-82
2022/05/17 05:28:08;;;;;;;12.83;11.67;;;;;;;19.34;52.83;93083.41;5084288;28;20954;-82
2022/05/17 05:30:34;;;;;;;12.53;11.70;;;;;;;19.90;51.49;93104.88;5088890;28;20221;-90
2022/05/17 05:32:59;;;;;;;12.90;11.80;;;;;;;19.35;52.75;93100.88;5088648;28;21111;-82
2022/05/17 05:35:25;;;;;;;12.87;11.83;;;;;;;19.39;53.04;93107.06;5086856;28;20276;-81
2022/05/17 05:37:52;;;;;;;12.33;11.30;;;;;;;20.48;50.25;93117.97;5087467;28;20189;-82
2022/05/17 05:40:18;;;;;;;12.43;11.23;;;;;;;22.59;45.50;93108.66;5088064;28;20225;-83
2022/05/17 05:42:44;;;;;;;12.10;11.23;;;;;;;24.87;40.29;93126.50;5086618;28;20188;-81
2022/05/17 05:45:10;;;;;;;13.38;12.27;;;;;;;23.46;42.49;93115.44;5088137;28;20271;-80
2022/05/17 05:47:36;;;;;;;12.82;11.73;;;;;;;26.56;36.41;93121.88;5088344;28;20204;-80
2022/05/17 05:50:02;;;;;;;11.57;10.75;;;;;;;30.51;29.41;93136.94;5088421;28;20191;-80
2022/05/17 05:52:28;;;;;;;11.52;10.25;;;;;;;31.82;26.90;93135.13;5089356;28;20196;-81
2022/05/17 05:54:53;;;;;;;10.77;9.95;;;;;;;33.06;24.91;93144.34;5086606;28;21338;-80
2022/05/17 05:57:18;;;;;;;11.25;10.43;;;;;;;33.41;24.16;93148.56;5088895;28;20271;-80
2022/05/17 05:59:44;;;;;;;11.02;10.23;;;;;;;33.64;24.60;93143.97;5088939;28;20278;-81
2022/05/17 06:02:11;;;;;;;10.43;9.55;;;;;;;34.94;22.59;93149.94;5088193;28;20216;-80
2022/05/17 06:04:37;;;;;;;10.73;9.70;;;;;;;35.55;21.94;93133.94;5088655;28;21148;-81
2022/05/17 06:07:03;;;;;;;10.85;9.95;;;;;;;34.95;21.95;93151.47;5086585;28;20232;-81
2022/05/17 06:09:29;;;;;;;11.23;10.23;;;;;;;34.86;21.81;93148.50;5087468;28;20204;-81
2022/05/17 06:11:55;;;;;;;10.85;9.95;;;;;;;33.80;23.28;93143.34;5086962;28;20241;-80
2022/05/17 06:14:21;;;;;;;10.95;10.00;;;;;;;33.28;24.04;93142.16;5088852;28;20184;-82
2022/05/17 06:16:48;;;;;;;11.02;9.98;;;;;;;34.02;23.47;93144.56;5087043;28;20292;-81
2022/05/17 06:19:13;;;;;;;10.18;9.38;;;;;;;34.84;21.83;93129.16;5086163;28;20193;-80
2022/05/17 06:21:39;;;;;;;9.85;8.93;;;;;;;35.40;21.02;93132.69;5087965;28;20228;-81
2022/05/17 06:24:05;;;;;;;9.93;9.20;;;;;;;34.14;22.55;93146.69;5085639;28;20213;-81
2022/05/17 06:26:30;;;;;;;12.35;11.35;;;;;;;35.78;20.21;93146.59;5081413;28;20217;-79
2022/05/17 06:28:56;;;;;;;9.32;8.52;;;;;;;30.64;25.07;93108.41;5086345;28;20196;-80
2022/05/17 06:31:22;;;;;;;9.15;8.35;;;;;;;32.19;23.99;93140.66;5088670;28;20231;-78
2022/05/17 06:33:47;;;;;;;9.40;8.70;;;;;;;31.46;24.57;93141.97;5087937;28;20185;-80
2022/05/17 06:36:12;;;;;;;10.15;9.27;;;;;;;27.86;29.95;93128.56;5086055;28;20228;-79
2022/05/17 06:38:38;;;;;;;10.43;9.73;;;;;;;24.78;35.45;93107.25;5086841;28;20197;-78
2022/05/17 06:41:04;;;;;;;11.80;10.80;;;;;;;23.90;38.50;93107.28;5087252;28;20240;-78
2022/05/17 06:43:30;;;;;;;10.75;9.95;;;;;;;22.77;40.84;93109.13;5087174;28;20224;-77
2022/05/17 06:45:55;;;;;;;13.32;11.00;;;;;;;21.20;45.50;93087.41;5087327;28;21064;-78
2022/05/17 06:48:21;;;;;;;11.63;10.63;;;;;;;20.54;47.72;93108.72;5088522;28;20183;-77
2022/05/17 06:50:47;;;;;;;11.15;10.25;;;;;;;20.36;48.09;93109.19;5086883;28;20314;-82
2022/05/17 06:53:13;;;;;;;11.15;10.35;;;;;;;20.88;47.84;93101.50;5086787;28;20179;-78
2022/05/17 06:55:39;;;;;;;11.70;10.45;;;;;;;21.26;45.63;93072.78;5079734;28;20248;-77
2022/05/17 06:58:05;;;;;;;11.80;10.80;;;;;;;21.42;46.79;93092.25;5086272;28;20187;-78
2022/05/17 07:00:34;;;;;;;11.27;10.48;;;;;;;21.49;45.88;93098.59;5079354;28;20244;-77
2022/05/17 07:03:00;;;;;;;10.48;9.77;;;;;;;21.05;47.67;93104.75;5066569;28;20182;-77
2022/05/17 07:05:26;;;;;;;12.00;11.00;;;;;;;20.81;47.82;93098.63;5065668;28;20303;-74
2022/05/17 07:07:53;;;;;;;11.13;10.35;;;;;;;20.11;49.24;93095.03;5067460;28;20198;-78
2022/05/17 07:13:09;;;;;;;11.55;10.65;;;;;;;20.92;46.70;93079.25;5067027;28;20215;-80
2022/05/17 07:15:47;;;;;;;10.60;9.88;;;;;;;21.35;47.21;93102.69;5071478;28;20328;-77
2022/05/17 07:18:15;;;;;;;11.63;10.70;;;;;;;21.19;47.75;93093.81;5087421;28;20195;-77
2022/05/17 07:20:42;;;;;;;11.25;10.32;;;;;;;20.86;46.78;93083.25;5085600;28;20228;-77
2022/05/17 07:23:09;;;;;;;11.05;10.32;;;;;;;20.57;49.05;93097.47;5085568;28;20188;-76
2022/05/17 07:25:36;;;;;;;10.63;9.60;;;;;;;21.29;46.98;93088.81;5085478;28;20291;-78
2022/05/17 07:28:01;;;;;;;12.13;10.43;;;;;;;20.97;46.35;93065.03;5085989;28;20244;-78
2022/05/17 07:30:28;;;;;;;10.85;9.85;;;;;;;21.00;47.64;93090.91;5086434;28;20239;-78
2022/05/17 07:32:54;;;;;;;11.30;10.30;;;;;;;21.37;46.98;93085.28;5087534;28;20192;-79
2022/05/17 07:35:19;;;;;;;10.18;9.48;;;;;;;21.00;46.51;93064.34;5086416;28;20213;-78
2022/05/17 07:37:45;;;;;;;10.52;9.82;;;;;;;21.22;46.39;93077.22;5085840;28;20202;-79
2022/05/17 07:40:12;;;;;;;11.15;10.35;;;;;;;21.33;47.21;93083.63;5086376;28;20187;-77
2022/05/17 07:42:40;;;;;;;11.02;10.23;;;;;;;20.65;47.25;93061.31;5087409;28;20178;-78
2022/05/17 07:45:07;;;;;;;11.48;10.40;;;;;;;21.50;46.80;93080.75;5084372;28;20227;-78
2022/05/17 07:47:33;;;;;;;10.73;9.90;;;;;;;21.79;45.16;93072.56;5085759;28;20200;-79
2022/05/17 07:49:58;;;;;;;12.15;11.07;;;;;;;21.57;45.44;93078.31;5085746;28;20191;-79
2022/05/17 07:52:24;;;;;;;11.35;10.43;;;;;;;21.56;44.75;93066.13;5088920;28;20188;-78
2022/05/17 07:54:49;;;;;;;11.32;10.52;;;;;;;21.23;46.43;93078.78;5087729;28;20368;-78
2022/05/17 07:57:15;;;;;;;11.13;10.20;;;;;;;21.59;47.28;93065.44;5088812;28;20224;-80
2022/05/17 07:59:41;;;;;;;10.52;9.80;;;;;;;22.03;46.05;93075.13;5088887;28;20186;-77
2022/05/17 08:02:07;;;;;;;11.90;11.00;;;;;;;21.96;45.57;93074.94;5089155;28;20217;-79
2022/05/17 08:04:32;;;;;;;10.55;9.75;;;;;;;22.12;43.87;93073.88;5087947;28;20275;-79
2022/05/17 08:06:58;;;;;;;11.48;10.40;;;;;;;21.58;45.06;93059.38;5088767;28;20225;-79
2022/05/17 08:09:24;;;;;;;11.07;10.18;;;;;;;21.91;45.08;93065.31;5085993;28;20190;-78
2022/05/17 08:11:50;;;;;;;11.13;10.25;;;;;;;22.03;44.79;93064.50;5086238;28;20220;-77
2022/05/17 08:14:16;;;;;;;10.73;9.70;;;;;;;22.51;45.33;93079.47;5088471;28;20198;-79
2022/05/17 08:16:42;;;;;;;11.05;10.07;;;;;;;22.61;44.68;93069.16;5088163;28;20238;-79
2022/05/17 08:19:09;;;;;;;11.32;10.57;;;;;;;22.48;44.10;93075.63;5089246;28;20205;-78
2022/05/17 08:21:36;;;;;;;14.43;11.35;;;;;;;22.11;44.43;93055.59;5088016;28;20230;-78
2022/05/17 08:24:01;;;;;;;10.18;9.30;;;;;;;22.10;42.54;93054.06;5086346;28;20203;-78
2022/05/17 08:34:40;;;;;;;9.98;9.18;;;;;;;22.22;41.66;93051.34;5087809;28;20194;-78
2022/05/17 08:37:05;;;;;;;11.20;10.35;;;;;;;22.54;41.61;93047.66;5089531;28;21111;-80
2022/05/17 08:39:31;;;;;;;10.80;9.90;;;;;;;22.73;41.52;93060.31;5089469;28;20194;-82
2022/05/17 08:42:09;;;;;;;10.88;10.05;;;;;;;23.02;40.23;93058.00;5086338;28;20237;-79
2022/05/17 08:44:46;;;;;;;9.65;8.95;;;;;;;22.86;38.17;93043.94;5088612;28;20244;-82
2022/05/17 08:47:18;;;;;;;10.35;9.65;;;;;;;22.38;40.35;93049.50;5087708;28;20238;-78
2022/05/17 08:49:55;;;;;;;9.75;9.15;;;;;;;22.76;39.60;93054.31;5089510;28;20190;-77
2022/05/17 08:52:23;;;;;;;9.85;9.15;;;;;;;22.80;39.04;93047.94;5088522;28;20226;-79
2022/05/17 08:55:10;;;;;;;9.52;8.93;;;;;;;23.08;40.07;93051.31;5088716;28;20191;-79
2022/05/17 08:57:43;;;;;;;9.27;8.77;;;;;;;23.05;38.52;93036.00;5088585;28;20207;-77
2022/05/17 09:00:13;;;;;;;9.27;8.68;;;;;;;23.36;33.52;93052.00;5088693;28;20179;-78
2022/05/17 09:02:45;;;;;;;8.70;8.30;;;;;;;23.08;34.73;93043.31;5088403;28;20194;-77
2022/05/17 09:05:21;;;;;;;9.38;8.65;;;;;;;23.57;35.86;93049.81;5086737;28;20214;-79
2022/05/17 09:08:10;;;;;;;9.98;9.18;;;;;;;23.45;35.79;93039.28;5089349;28;20190;-79
2022/05/17 09:10:40;;;;;;;9.57;8.57;;;;;;;23.54;35.40;93041.75;5088876;28;20245;-78
2022/05/17 09:13:16;;;;;;;9.88;9.18;;;;;;;23.39;35.63;93043.31;5089563;28;20290;-77
2022/05/17 09:15:43;;;;;;;9.52;8.77;;;;;;;23.49;35.95;93047.34;5086829;28;20234;-78
2022/05/17 09:18:13;;;;;;;10.70;8.65;;;;;;;23.45;36.82;93033.97;5087642;28;20190;-79
2022/05/17 09:20:39;;;;;;;9.32;8.80;;;;;;;23.53;36.63;93034.88;5080956;28;20224;-79
2022/05/17 09:23:06;;;;;;;11.23;10.27;;;;;;;23.62;35.26;93035.44;5068920;28;20239;-79
2022/05/17 09:25:44;;;;;;;8.80;8.10;;;;;;;23.51;34.63;93035.22;5071969;28;20850;-78
2022/05/17 09:28:11;;;;;;;9.75;8.27;;;;;;;23.52;33.02;93038.66;5086801;28;20346;-77
2022/05/17 09:30:38;;;;;;;8.98;8.38;;;;;;;23.56;33.83;93039.50;5088092;28;20265;-77
2022/05/17 09:33:08;;;;;;;8.88;8.35;;;;;;;23.92;32.59;93030.38;5086607;28;20186;-79
2022/05/17 09:35:53;;;;;;;8.70;8.10;;;;;;;24.07;32.86;93034.88;5087247;28;20334;-79
2022/05/17 09:38:19;;;;;;;8.57;8.07;;;;;;;23.94;33.42;93017.47;5089946;28;20183;-78
2022/05/17 09:40:48;;;;;;;8.40;7.90;;;;;;;24.01;32.72;93026.41;5087877;28;20228;-78
2022/05/17 09:43:16;;;;;;;8.80;8.35;;;;;;;23.82;32.89;93009.56;5088369;28;20204;-78
2022/05/17 09:45:49;;;;;;;8.95;8.45;;;;;;;24.17;32.50;93031.66;5084404;28;20231;-79
2022/05/17 09:48:29;;;;;;;9.30;8.68;;;;;;;24.04;32.22;93017.69;5087828;28;21005;-82
2022/05/17 09:53:45;;;;;;;9.55;8.77;;;;;;;23.83;31.88;93017.22;5082892;28;20205;-76
2022/05/17 09:56:12;;;;;;;9.70;9.07;;;;;;;24.15;31.67;93013.34;5086870;28;20222;-76
2022/05/17 09:58:40;;;;;;;9.07;8.57;;;;;;;24.53;31.85;92999.94;5087966;28;20179;-76
2022/05/17 10:01:20;;;;;;;9.00;8.50;;;;;;;24.25;32.28;93006.66;5084110;28;20235;-69
2022/05/17 10:04:18;;;;;;;7.82;7.40;;;;;;;24.55;30.49;92986.22;5085218;28;20227;-78
2022/05/17 10:06:46;;;;;;;8.27;7.68;;;;;;;24.55;30.75;93007.59;5087370;28;20299;-78
2022/05/17 10:09:26;;;;;;;10.10;9.32;;;;;;;24.62;29.96;92999.72;5087210;28;20220;-76
2022/05/17 10:12:00;;;;;;;9.35;8.65;;;;;;;24.57;29.23;92997.31;5084309;28;20803;-79
2022/05/17 10:14:52;;;;;;;9.93;9.13;;;;;;;24.55;30.26;92996.91;5083595;28;20193;-77
2022/05/17 10:17:41;;;;;;;8.80;8.30;;;;;;;24.29;30.00;92978.91;5086968;28;21290;-77
2022/05/17 10:20:38;;;;;;;15.15;8.57;;;;;;;24.48;30.07;92991.44;5086360;28;20831;-77
2022/05/17 10:23:30;;;;;;;9.00;8.40;;;;;;;24.58;28.52;92985.50;5077662;28;20210;-77
2022/05/17 10:26:11;;;;;;;10.93;8.10;;;;;;;24.81;28.27;92978.31;5080689;28;20290;-80
2022/05/17 10:28:40;;;;;;;7.95;7.38;;;;;;;25.05;28.29;92969.91;5086743;28;20183;-81
2022/05/17 10:31:18;;;;;;;8.57;8.07;;;;;;;24.84;28.42;92970.34;5084409;28;20231;-82
2022/05/17 10:33:44;;;;;;;7.85;7.43;;;;;;;25.03;27.54;92962.25;5087015;28;20188;-81
2022/05/17 10:36:36;;;;;;;7.88;7.47;;;;;;;24.92;28.50;92955.97;5087419;28;20248;-80
2022/05/17 10:39:24;;;;;;;7.97;7.35;;;;;;;24.93;29.25;92962.09;5083784;28;20188;-80
2022/05/17 10:41:50;;;;;;;7.55;7.20;;;;;;;25.06;29.83;92960.75;5087228;28;20366;-80
2022/05/17 10:44:19;;;;;;;7.38;7.00;;;;;;;25.22;29.99;92958.72;5085186;28;20238;-80
2022/05/17 10:46:53;;;;;;;7.68;7.28;;;;;;;25.19;29.72;92957.53;5084426;28;20230;-85
2022/05/17 10:49:37;;;;;;;7.43;7.03;;;;;;;25.12;29.47;92951.34;5086598;28;20188;-82
2022/05/17 10:52:13;;;;;;;8.15;7.72;;;;;;;25.08;29.61;92943.25;5086503;28;20226;-83
2022/05/17 10:55:00;;;;;;;8.43;7.93;;;;;;;25.10;28.53;92945.56;5084266;28;20226;-80
2022/05/17 10:58:17;;;;;;;8.00;7.50;;;;;;;25.23;29.41;92936.22;5084322;28;20219;-80
2022/05/17 11:01:15;;;;;;;7.63;7.22;;;;;;;25.27;29.87;92927.13;5024465;28;20235;-80
2022/05/17 11:04:04;;;;;;;8.02;7.63;;;;;;;25.39;30.06;92939.50;5038257;28;20198;-82
2022/05/17 11:06:33;;;;;;;8.45;7.95;;;;;;;25.35;30.54;92936.03;5086231;28;20300;-82
2022/05/17 11:09:12;;;;;;;7.40;6.90;;;;;;;25.31;29.44;92905.75;5085469;28;20251;-81
2022/05/17 11:11:47;;;;;;;7.82;7.32;;;;;;;25.31;29.79;92921.78;5086916;28;20238;-80
2022/05/17 11:14:40;;;;;;;8.68;7.97;;;;;;;25.49;30.50;92922.06;5088559;28;20201;-80
2022/05/17 11:17:23;;;;;;;8.18;7.68;;;;;;;25.48;28.57;92915.19;5086528;28;20235;-81
2022/05/17 11:20:22;;;;;;;8.20;7.75;;;;;;;25.19;29.00;92906.75;5086360;28;20180;-79
2022/05/17 11:23:12;;;;;;;7.68;7.35;;;;;;;25.15;31.31;92915.88;5049083;28;20225;-79
2022/05/17 11:26:02;;;;;;;8.70;8.20;;;;;;;25.45;29.67;92903.28;5070694;28;20221;-80
2022/05/17 11:29:01;;;;;;;8.13;7.63;;;;;;;25.50;29.95;92900.31;5091294;28;20216;-81
2022/05/17 11:31:36;;;;;;;8.40;7.80;;;;;;;25.76;29.34;92894.88;5090815;28;20239;-80
2022/05/17 11:34:30;;;;;;;8.23;7.72;;;;;;;25.78;30.03;92900.66;5089377;28;20196;-80
2022/05/17 11:37:08;;;;;;;10.05;8.20;;;;;;;25.50;31.10;92883.50;5090620;28;20325;-80
2022/05/17 11:39:49;;;;;;;7.50;7.10;;;;;;;25.69;30.30;92892.16;5089738;28;20182;-81
2022/05/17 11:42:31;;;;;;;8.43;7.82;;;;;;;25.76;30.41;92889.53;5089722;28;20228;-85
2022/05/17 11:45:18;;;;;;;8.82;8.10;;;;;;;25.25;30.74;92883.94;5089107;28;20227;-83
2022/05/17 11:47:43;;;;;;;8.63;8.13;;;;;;;25.51;30.99;92885.78;5090028;28;20189;-82
2022/05/17 11:53:52;;;;;;;8.48;7.70;;;;;;;25.65;30.42;92885.97;5107594;27;20552;-82
2022/05/17 11:56:32;;;;;;;8.25;7.65;;;;;;;25.74;29.27;92875.78;5088976;27;20228;-83
2022/05/17 11:59:12;;;;;;;8.00;7.55;;;;;;;25.30;29.74;92872.16;5073419;28;20211;-81